Aérodrome :
LOGIN :

S'inscrire | Disclaimer

   EN    FR    IT 

 










Légende :    VFR   VFR Marginal   IFR   IFR Intensif   IFR Très Intensif
Visi : 
Plafond : 
>= 8 km
>= 3000ft
5 à 8 km
1000 à 3000 ft
1500m à 5 km
500 à 1000 ft
800 à 1500m
200 à 500 ft
< 800m
< 200 ft
Symboles :   Orages  Brouillard  Fortes neiges  Fortes précipitations  Vent > 20 kt
SIGMETs :   Divers  Orages  Givrage  Turbulence  Onde Orograph.  Cendres Volcan.







- Altitude de l'aérodrome : 587 ft
- Code IATA : XCR
- Voir les cartes d'approche


LFOK - Chalons Vatry

DERNIER METAR :
  • 221630Z AUTO 20010KT 2900 -SN BR BKN004 BKN016 OVC026 M01/M01 Q1003 BECMG 7000 NSW OVC008

METARs EXPIRÉS :
  • 221600Z AUTO 18011KT 1400 1300 R10/1900U R28/1900D -SN BR BKN003 OVC016 M01/M01 Q1003 TEMPO SN
  • 221530Z AUTO 18013KT 1700 SN BR BKN003 BKN012 OVC020 M01/M01 Q1003 TEMPO 1200 SN BR
  • 221500Z AUTO 19013KT 1000 0900 R10/1500D R28/1400U SN BCFG SCT004 BKN010 BKN017 M01/M01 Q1004 TEMPO OVC003
  • 221430Z AUTO 19014KT 0900 0800 R10/1200U R28/1600D +SN FZFG BKN004 BKN009 OVC019 M01/M01 Q1004 TEMPO SN
  • 221400Z AUTO 18013KT 1100 0900 R10/1200U R28/1600D -SN BCFG BKN004 BKN010 OVC018 M01/M01 Q1004 TEMPO SN

TAF TAF LFOK
Valide du 22 à 12h jusqu'au 23 à 12h UTC


221100Z 2212/2312 17015KT 7000 OVC008
TEMPO 2212/2218 1200 SN BR OVC003
BECMG 2218/2220 23008KT
TEMPO 2300/2305 1200 SN BR OVC003
Pas de NOTAMs connus pour ce terrain.



MET'MAP, la Météo Aéronautique d'un coup d'oeil ! - Copyright ORBIFLY Décembre 2007 - Disclaimer

ORBIFLY MET'MAP TEAM :

Programmation & Développement : Alexandra Zaïnal
Conception & Développement : Baudouin d'Aumeries
Co-Programmation & Développement : Marc-Olivier Méhu
Soutien technique & logistique : Manuel Goepfert

Contact : metmap@orbifly.com




SOURCES & CREDITS :

   NOAA